createdAt,value
2023-03-06T00:02:02.982Z,21.70
2023-03-06T00:04:29.484Z,35.10
2023-03-06T00:06:55.941Z,104.03
2023-03-06T00:09:22.489Z,51.58
2023-03-06T00:11:48.995Z,68.70
2023-03-06T00:14:16.539Z,44.85
2023-03-06T00:16:43.018Z,50.90
2023-03-06T00:19:09.575Z,30.45
2023-03-06T00:21:36.099Z,37.88
2023-03-06T00:24:02.626Z,25.35
2023-03-06T00:26:29.122Z,24.30
2023-03-06T00:28:55.638Z,19.88
2023-03-06T00:31:22.210Z,18.63
2023-03-06T00:33:49.500Z,71.05
2023-03-06T00:36:16.099Z,81.35
2023-03-06T00:38:42.652Z,67.68
2023-03-06T00:41:13.212Z,49.88
2023-03-06T00:43:39.767Z,21.35
2023-03-06T00:46:06.484Z,24.58
2023-03-06T00:48:33.911Z,30.20
2023-03-06T00:51:01.220Z,17.63
2023-03-06T00:53:27.826Z,23.00
2023-03-06T00:55:54.323Z,17.08
2023-03-06T00:58:20.813Z,21.17
2023-03-06T01:00:47.382Z,11.32
2023-03-06T01:03:13.988Z,18.52
2023-03-06T01:05:40.795Z,10.63
2023-03-06T01:08:08.827Z,18.65
2023-03-06T01:10:39.659Z,14.77
2023-03-06T01:13:06.537Z,16.75
2023-03-06T01:15:33.224Z,18.23
2023-03-06T01:17:59.783Z,13.20
2023-03-06T01:20:26.480Z,15.73
2023-03-06T01:22:54.575Z,19.42
2023-03-06T01:25:21.467Z,16.25
2023-03-06T01:27:48.060Z,15.07
2023-03-06T01:30:14.619Z,18.20
2023-03-06T01:32:41.302Z,17.23
2023-03-06T01:35:08.621Z,16.20
2023-03-06T01:37:36.344Z,18.90
2023-03-06T01:40:04.536Z,14.75
2023-03-06T01:42:32.250Z,13.90
2023-03-06T01:45:04.216Z,19.58
2023-03-06T01:47:30.975Z,14.70
2023-03-06T01:50:00.641Z,22.13
2023-03-06T01:52:31.340Z,12.20
2023-03-06T01:55:03.120Z,14.13
2023-03-06T01:57:57.991Z,18.95
2023-03-06T02:00:27.760Z,19.67
2023-03-06T02:03:05.380Z,22.40
2023-03-06T02:05:32.391Z,20.10
2023-03-06T02:07:59.068Z,14.95
2023-03-06T02:10:25.712Z,18.65
2023-03-06T02:12:53.086Z,19.33
2023-03-06T02:15:23.348Z,21.63
2023-03-06T02:17:51.405Z,24.55
2023-03-06T02:20:39.895Z,20.73
2023-03-06T02:23:14.327Z,19.65
2023-03-06T02:25:47.519Z,18.67
2023-03-06T02:28:19.932Z,22.67
2023-03-06T02:30:49.307Z,17.40
2023-03-06T02:33:18.638Z,13.45
2023-03-06T02:35:54.371Z,14.02
2023-03-06T02:38:26.070Z,18.55
2023-03-06T02:40:53.030Z,20.52
2023-03-06T02:43:28.062Z,23.05
2023-03-06T02:45:54.663Z,21.63
2023-03-06T02:48:21.650Z,18.98
2023-03-06T02:50:48.728Z,15.98
2023-03-06T02:53:17.490Z,16.55
2023-03-06T02:55:44.036Z,16.55
2023-03-06T02:58:10.571Z,14.93
2023-03-06T03:00:37.115Z,22.52
2023-03-06T03:03:05.081Z,17.70
2023-03-06T03:05:31.716Z,20.00
2023-03-06T03:07:58.530Z,14.25
2023-03-06T03:10:25.326Z,20.60
2023-03-06T03:12:51.827Z,18.98
2023-03-06T03:15:18.809Z,15.80
2023-03-06T03:17:45.339Z,17.05
2023-03-06T03:20:15.296Z,21.98
2023-03-06T03:22:42.012Z,13.77
2023-03-06T03:25:09.108Z,19.60
2023-03-06T03:27:35.660Z,20.00
2023-03-06T03:30:02.175Z,18.95
2023-03-06T03:32:28.710Z,17.63
2023-03-06T03:34:56.358Z,18.23
2023-03-06T03:37:23.193Z,21.98
2023-03-06T03:39:49.798Z,16.30
2023-03-06T03:42:16.327Z,25.58
2023-03-06T03:44:42.841Z,17.85
2023-03-06T03:47:09.323Z,19.52
2023-03-06T03:49:35.821Z,16.08
2023-03-06T03:52:02.294Z,16.92
2023-03-06T03:54:29.604Z,19.02
2023-03-06T03:56:56.157Z,13.38
2023-03-06T03:59:22.789Z,18.80
2023-03-06T04:01:49.648Z,11.05
2023-03-06T04:04:16.564Z,14.18
2023-03-06T04:06:43.087Z,15.30
2023-03-06T04:09:10.768Z,14.80
2023-03-06T04:11:37.520Z,16.73
2023-03-06T04:14:04.181Z,18.75
2023-03-06T04:16:30.784Z,17.05
2023-03-06T04:18:57.391Z,15.52
2023-03-06T04:21:23.840Z,14.98
2023-03-06T04:23:50.358Z,16.33
2023-03-06T04:26:16.834Z,17.60
2023-03-06T04:28:43.350Z,15.02
2023-03-06T04:31:12.198Z,23.85
2023-03-06T04:33:39.363Z,26.42
2023-03-06T04:36:06.052Z,24.42
2023-03-06T04:38:32.615Z,21.70
2023-03-06T04:40:59.211Z,21.40
2023-03-06T04:43:25.796Z,17.33
2023-03-06T04:45:52.387Z,18.30
2023-03-06T04:48:19.140Z,17.33
2023-03-06T04:50:46.165Z,17.00
2023-03-06T04:53:14.500Z,19.20
2023-03-06T04:55:41.035Z,14.90
2023-03-06T04:58:07.544Z,16.25
2023-03-06T05:00:34.199Z,17.35
2023-03-06T05:03:01.637Z,20.90
2023-03-06T05:05:28.406Z,23.13
2023-03-06T05:07:55.142Z,21.50
2023-03-06T05:10:21.894Z,18.92
2023-03-06T05:12:48.461Z,20.63
2023-03-06T05:15:16.719Z,20.08
2023-03-06T05:17:43.691Z,18.60
2023-03-06T05:20:11.985Z,21.88
2023-03-06T05:22:38.732Z,16.65
2023-03-06T05:25:06.154Z,20.58
2023-03-06T05:27:33.405Z,14.18
2023-03-06T05:30:00.266Z,17.00
2023-03-06T05:32:26.855Z,25.20
2023-03-06T05:34:53.427Z,21.27
2023-03-06T05:37:20.009Z,22.42
2023-03-06T05:39:46.855Z,21.40
2023-03-06T05:42:13.394Z,22.77
2023-03-06T05:44:41.598Z,18.40
2023-03-06T05:47:09.081Z,16.83
2023-03-06T05:49:36.802Z,21.73
2023-03-06T05:52:04.707Z,22.98
2023-03-06T05:54:33.493Z,18.80
2023-03-06T05:57:00.182Z,27.50
2023-03-06T05:59:28.586Z,20.17
2023-03-06T06:01:56.032Z,17.90
2023-03-06T06:04:23.955Z,22.13
2023-03-06T06:06:55.949Z,20.60
2023-03-06T06:09:23.423Z,21.65
2023-03-06T06:11:54.376Z,15.30
2023-03-06T06:14:21.571Z,17.73
2023-03-06T06:16:48.828Z,17.80
2023-03-06T06:19:18.775Z,20.27
2023-03-06T06:21:50.829Z,17.35
2023-03-06T06:24:19.683Z,19.30
2023-03-06T06:26:46.555Z,17.17
2023-03-06T06:29:13.593Z,24.95
2023-03-06T06:31:40.678Z,17.67
2023-03-06T06:34:08.540Z,23.23
2023-03-06T06:36:35.040Z,20.42
2023-03-06T06:39:01.611Z,22.25
2023-03-06T06:41:54.895Z,15.50
2023-03-06T06:44:16.197Z,15.63
2023-03-06T06:49:32.190Z,21.05
2023-03-06T06:51:58.880Z,21.35
2023-03-06T06:54:25.879Z,20.13
2023-03-06T06:56:52.862Z,20.88
2023-03-06T06:59:19.751Z,18.27
2023-03-06T07:01:46.331Z,19.00
2023-03-06T07:04:13.752Z,23.13
2023-03-06T07:06:41.240Z,23.88
2023-03-06T07:09:07.741Z,16.27
2023-03-06T07:11:34.534Z,21.58
2023-03-06T07:14:01.848Z,14.32
2023-03-06T07:16:28.381Z,23.30
2023-03-06T07:18:55.004Z,15.07
2023-03-06T07:21:21.759Z,19.85
2023-03-06T07:23:48.322Z,15.35
2023-03-06T07:26:14.800Z,14.82
2023-03-06T07:28:52.039Z,22.75
2023-03-06T07:31:25.143Z,23.33
2023-03-06T07:33:54.056Z,15.90
2023-03-06T07:36:22.293Z,14.70
2023-03-06T07:38:48.860Z,14.60
2023-03-06T07:41:16.556Z,17.42
2023-03-06T07:43:44.841Z,14.32
2023-03-06T07:46:13.150Z,16.40
2023-03-06T07:48:40.300Z,14.95
2023-03-06T07:51:18.655Z,13.05
2023-03-06T07:53:46.027Z,14.48
2023-03-06T07:56:13.301Z,12.38
2023-03-06T07:58:42.464Z,16.60
2023-03-06T08:01:12.727Z,20.60
2023-03-06T08:06:17.417Z,15.45
2023-03-06T08:08:46.017Z,14.30
2023-03-06T08:11:14.842Z,14.10
2023-03-06T08:13:41.727Z,15.23
2023-03-06T08:16:09.187Z,15.60
2023-03-06T08:18:36.128Z,18.45
2023-03-06T08:21:09.188Z,13.98
2023-03-06T08:23:36.203Z,15.55
2023-03-06T08:26:07.086Z,15.73
2023-03-06T08:28:34.185Z,13.50
2023-03-06T08:31:25.767Z,14.30
2023-03-06T08:33:53.251Z,14.13
2023-03-06T08:36:19.751Z,14.00
2023-03-06T08:38:46.439Z,13.70
2023-03-06T08:41:13.678Z,14.25
2023-03-06T08:43:40.345Z,14.25
2023-03-06T08:46:06.975Z,13.95
2023-03-06T08:48:33.568Z,17.23
2023-03-06T08:51:00.122Z,13.05
2023-03-06T08:53:40.660Z,11.95
2023-03-06T08:56:16.206Z,13.07
2023-03-06T08:58:42.676Z,17.33
2023-03-06T09:01:21.453Z,18.92
2023-03-06T09:03:48.582Z,15.35
2023-03-06T09:06:15.967Z,12.65
2023-03-06T09:08:44.362Z,15.23
2023-03-06T09:11:13.092Z,15.13
2023-03-06T09:13:39.852Z,14.98
2023-03-06T09:16:07.273Z,13.38
2023-03-06T09:18:33.766Z,14.90
2023-03-06T09:21:00.299Z,12.63
2023-03-06T09:23:26.842Z,13.25
2023-03-06T09:25:58.673Z,11.90
2023-03-06T09:28:25.785Z,12.75
2023-03-06T09:30:53.929Z,13.73
2023-03-06T09:33:20.785Z,15.48
2023-03-06T09:35:53.088Z,11.73
2023-03-06T09:38:20.856Z,12.43
2023-03-06T09:41:02.614Z,10.68
2023-03-06T09:43:39.839Z,11.48
2023-03-06T09:46:18.242Z,11.85
2023-03-06T09:49:35.554Z,9.10
2023-03-06T09:52:19.379Z,9.32
2023-03-06T09:55:09.114Z,8.45
2023-03-06T09:57:38.201Z,9.50
2023-03-06T10:00:16.614Z,9.57
2023-03-06T10:02:53.491Z,10.80
2023-03-06T10:05:27.274Z,13.30
2023-03-06T10:08:03.405Z,12.48
2023-03-06T10:10:57.522Z,11.82
2023-03-06T10:13:36.649Z,10.98
2023-03-06T10:16:33.224Z,11.65
2023-03-06T10:19:03.172Z,12.48
2023-03-06T10:22:20.333Z,11.40
2023-03-06T10:24:54.026Z,11.27
2023-03-06T10:27:38.558Z,13.18
2023-03-06T10:30:27.948Z,11.45
2023-03-06T10:33:06.139Z,14.90
2023-03-06T10:35:45.680Z,12.82
2023-03-06T10:38:30.742Z,11.93
2023-03-06T10:41:07.302Z,11.95
2023-03-06T10:43:36.502Z,11.05
2023-03-06T10:46:05.042Z,10.80
2023-03-06T10:48:35.951Z,12.32
2023-03-06T10:51:21.719Z,12.50
2023-03-06T10:54:02.898Z,14.40
2023-03-06T10:56:31.079Z,11.13
2023-03-06T10:59:17.765Z,11.85
2023-03-06T11:01:49.827Z,9.63
2023-03-06T11:04:28.845Z,12.27
2023-03-06T11:07:16.165Z,10.52
2023-03-06T11:10:00.986Z,10.32
2023-03-06T11:12:35.367Z,14.20
2023-03-06T11:15:14.244Z,10.95
2023-03-06T11:18:09.901Z,11.00
2023-03-06T11:20:52.431Z,10.43
2023-03-06T11:23:29.314Z,10.70
2023-03-06T11:26:01.195Z,11.50
2023-03-06T11:28:35.043Z,13.52
2023-03-06T11:31:11.935Z,10.05
2023-03-06T11:33:46.445Z,12.02
2023-03-06T11:36:23.134Z,10.23
2023-03-06T11:38:54.307Z,10.98
2023-03-06T11:41:32.894Z,12.70
2023-03-06T11:44:15.343Z,13.85
2023-03-06T11:46:48.686Z,15.32
2023-03-06T11:49:28.982Z,12.65
2023-03-06T11:51:59.325Z,12.57
2023-03-06T11:54:26.583Z,11.40
2023-03-06T11:57:06.633Z,11.13
2023-03-06T12:02:39.641Z,13.18
2023-03-06T12:05:24.568Z,11.95
2023-03-06T12:08:03.182Z,13.27
2023-03-06T12:10:41.221Z,11.73
2023-03-06T12:13:35.332Z,10.55
2023-03-06T12:16:31.693Z,12.90
2023-03-06T12:19:17.209Z,14.02
2023-03-06T12:21:47.237Z,13.65
2023-03-06T12:27:13.155Z,12.40
2023-03-06T12:30:04.166Z,12.00
2023-03-06T12:32:38.051Z,12.55
2023-03-06T12:35:16.698Z,11.60
2023-03-06T12:38:14.723Z,12.23
2023-03-06T12:41:16.832Z,11.57
2023-03-06T12:44:05.504Z,12.95
2023-03-06T12:46:38.863Z,13.07
2023-03-06T12:49:09.770Z,11.10
2023-03-06T12:51:39.851Z,11.40
2023-03-06T12:54:07.169Z,11.98
2023-03-06T12:56:34.704Z,14.32
2023-03-06T12:59:04.896Z,12.30
2023-03-06T13:04:48.067Z,13.05
2023-03-06T13:07:27.922Z,12.35
2023-03-06T13:10:09.759Z,11.55
2023-03-06T13:12:47.389Z,11.75
2023-03-06T13:15:37.185Z,12.63
2023-03-06T13:18:22.089Z,11.70
2023-03-06T13:20:49.336Z,12.30
2023-03-06T13:23:37.388Z,13.07
2023-03-06T13:26:24.975Z,12.32
2023-03-06T13:28:57.807Z,14.90
2023-03-06T13:31:33.186Z,14.50
2023-03-06T13:34:00.847Z,13.25
2023-03-06T13:36:38.289Z,11.82
2023-03-06T13:39:10.220Z,13.48
2023-03-06T13:41:44.261Z,12.10
2023-03-06T13:44:40.323Z,12.13
2023-03-06T13:47:25.843Z,16.13
2023-03-06T13:49:52.401Z,11.30
2023-03-06T13:52:25.182Z,13.70
2023-03-06T13:55:12.994Z,13.50
2023-03-06T13:58:21.191Z,12.27
2023-03-06T14:01:11.948Z,9.60
2023-03-06T14:04:25.121Z,10.40
2023-03-06T14:07:06.637Z,10.35
2023-03-06T14:09:48.591Z,10.65
2023-03-06T14:12:24.433Z,11.68
2023-03-06T14:14:56.797Z,10.05
2023-03-06T14:17:40.425Z,12.35
2023-03-06T14:20:19.746Z,29.52
2023-03-06T14:22:46.364Z,22.83
2023-03-06T14:25:12.895Z,14.40
2023-03-06T14:28:05.681Z,13.43
2023-03-06T14:30:49.639Z,11.90
2023-03-06T14:33:44.577Z,11.20
2023-03-06T14:36:15.658Z,12.52
2023-03-06T14:38:50.219Z,14.02
2023-03-06T14:41:28.783Z,14.25
2023-03-06T14:44:30.606Z,10.23
2023-03-06T14:47:26.937Z,12.27
2023-03-06T14:50:23.257Z,13.18
2023-03-06T14:52:55.262Z,17.48
2023-03-06T14:55:24.574Z,17.42
2023-03-06T14:58:01.643Z,11.98
2023-03-06T15:00:35.827Z,12.30
2023-03-06T15:03:07.580Z,11.73
2023-03-06T15:05:34.732Z,12.02
2023-03-06T15:08:04.571Z,10.10
2023-03-06T15:10:34.184Z,8.45
2023-03-06T15:13:20.008Z,10.52
2023-03-06T15:16:01.185Z,15.05
2023-03-06T15:18:29.674Z,10.20
2023-03-06T15:21:07.867Z,12.93
2023-03-06T15:23:36.056Z,10.90
2023-03-06T15:26:22.271Z,18.23
2023-03-06T15:29:08.319Z,29.27
2023-03-06T15:31:38.264Z,16.33
2023-03-06T15:34:07.829Z,16.35
2023-03-06T15:36:37.488Z,13.15
2023-03-06T15:39:30.192Z,14.35
2023-03-06T15:42:05.016Z,14.10
2023-03-06T15:44:32.846Z,11.32
2023-03-06T15:47:08.500Z,11.65
2023-03-06T15:49:38.231Z,10.55
2023-03-06T15:52:06.494Z,12.35
2023-03-06T15:54:33.369Z,13.77
2023-03-06T15:57:00.444Z,9.68
2023-03-06T15:59:33.086Z,12.70
2023-03-06T16:02:11.036Z,13.13
2023-03-06T16:04:37.646Z,12.20
2023-03-06T16:07:04.180Z,12.13
2023-03-06T16:09:30.697Z,11.48
2023-03-06T16:11:57.294Z,14.05
2023-03-06T16:14:24.033Z,15.55
2023-03-06T16:16:52.355Z,12.57
2023-03-06T16:19:28.699Z,14.25
2023-03-06T16:21:56.484Z,14.10
2023-03-06T16:24:23.375Z,11.15
2023-03-06T16:26:51.519Z,13.55
2023-03-06T16:29:20.710Z,12.73
2023-03-06T16:31:47.613Z,10.83
2023-03-06T16:34:15.301Z,14.48
2023-03-06T16:36:41.965Z,11.68
2023-03-06T16:39:20.088Z,11.52
2023-03-06T16:41:47.170Z,11.70
2023-03-06T16:44:13.759Z,13.52
2023-03-06T16:46:45.251Z,11.63
2023-03-06T16:49:18.665Z,14.02
2023-03-06T16:51:45.422Z,13.20
2023-03-06T16:54:13.167Z,11.05
2023-03-06T16:56:39.822Z,11.88
2023-03-06T16:59:06.603Z,13.15
2023-03-06T17:01:33.233Z,12.77
2023-03-06T17:03:59.942Z,10.52
2023-03-06T17:06:26.514Z,11.57
2023-03-06T17:08:53.032Z,12.82
2023-03-06T17:11:20.453Z,16.73
2023-03-06T17:13:47.905Z,13.30
2023-03-06T17:16:18.456Z,15.63
2023-03-06T17:18:45.999Z,20.20
2023-03-06T17:21:15.739Z,50.72
2023-03-06T17:23:42.702Z,48.08
2023-03-06T17:26:15.393Z,37.08
2023-03-06T17:28:42.643Z,24.27
2023-03-06T17:31:18.098Z,19.00
2023-03-06T17:33:44.900Z,13.20
2023-03-06T17:36:12.620Z,13.48
2023-03-06T17:38:39.131Z,18.23
2023-03-06T17:41:07.759Z,15.70
2023-03-06T17:43:34.297Z,13.05
2023-03-06T17:46:09.390Z,11.82
2023-03-06T17:48:36.851Z,13.25
2023-03-06T17:51:04.103Z,12.15
2023-03-06T17:53:30.684Z,12.30
2023-03-06T17:55:58.206Z,10.38
2023-03-06T17:58:25.671Z,11.90
2023-03-06T18:00:52.546Z,10.40
2023-03-06T18:03:19.182Z,13.73
2023-03-06T18:05:45.747Z,13.05
2023-03-06T18:08:12.411Z,12.60
2023-03-06T18:10:43.464Z,12.75
2023-03-06T18:13:10.256Z,13.85
2023-03-06T18:15:40.776Z,14.02
2023-03-06T18:18:08.170Z,12.50
2023-03-06T18:20:39.959Z,11.18
2023-03-06T18:23:06.487Z,13.25
2023-03-06T18:25:33.172Z,22.63
2023-03-06T18:27:59.728Z,19.73
2023-03-06T18:30:26.399Z,16.52
2023-03-06T18:32:53.676Z,11.00
2023-03-06T18:35:20.650Z,9.93
2023-03-06T18:37:47.174Z,15.18
2023-03-06T18:40:14.213Z,12.43
2023-03-06T18:42:40.784Z,11.38
2023-03-06T18:45:07.945Z,9.95
2023-03-06T18:47:34.517Z,11.50
2023-03-06T18:50:02.717Z,8.38
2023-03-06T18:52:29.246Z,10.40
2023-03-06T18:54:55.766Z,9.70
2023-03-06T18:57:22.310Z,12.98
2023-03-06T18:59:49.060Z,13.52
2023-03-06T19:02:15.627Z,17.73
2023-03-06T19:04:42.183Z,18.73
2023-03-06T19:07:08.712Z,18.25
2023-03-06T19:09:35.248Z,13.05
2023-03-06T19:12:03.487Z,11.05
2023-03-06T19:14:30.337Z,12.57
2023-03-06T19:16:57.032Z,14.98
2023-03-06T19:19:26.326Z,19.50
2023-03-06T19:21:53.676Z,11.63
2023-03-06T19:24:20.228Z,10.82
2023-03-06T19:26:46.886Z,12.82
2023-03-06T19:29:13.384Z,9.60
2023-03-06T19:31:40.022Z,8.15
2023-03-06T19:34:06.532Z,9.98
2023-03-06T19:36:34.283Z,9.13
2023-03-06T19:39:03.638Z,10.35
2023-03-06T19:41:30.589Z,9.90
2023-03-06T19:43:59.554Z,9.43
2023-03-06T19:46:27.247Z,14.65
2023-03-06T19:49:09.923Z,10.00
2023-03-06T19:51:37.110Z,11.63
2023-03-06T19:54:03.865Z,11.13
2023-03-06T19:56:31.915Z,9.05
2023-03-06T19:58:58.505Z,14.95
2023-03-06T20:01:27.216Z,8.75
2023-03-06T20:03:58.565Z,10.23
2023-03-06T20:06:31.133Z,11.02
2023-03-06T20:08:57.679Z,13.77
2023-03-06T20:11:26.821Z,14.27
2023-03-06T20:13:53.486Z,12.07
2023-03-06T20:16:20.374Z,14.10
2023-03-06T20:18:46.900Z,11.80
2023-03-06T20:21:14.223Z,12.32
2023-03-06T20:23:40.986Z,13.82
2023-03-06T20:26:10.130Z,12.90
2023-03-06T20:28:38.685Z,15.43
2023-03-06T20:31:18.102Z,14.85
2023-03-06T20:33:47.761Z,14.93
2023-03-06T20:36:16.910Z,12.43
2023-03-06T20:38:44.377Z,12.73
2023-03-06T20:41:19.798Z,12.90
2023-03-06T20:43:46.411Z,13.50
2023-03-06T20:46:14.004Z,11.02
2023-03-06T20:48:41.595Z,14.10
2023-03-06T20:51:17.393Z,12.15
2023-03-06T20:53:43.967Z,11.77
2023-03-06T20:56:16.373Z,10.52
2023-03-06T20:58:43.372Z,12.13
2023-03-06T21:01:18.094Z,10.75
2023-03-06T21:03:44.727Z,9.90
2023-03-06T21:06:11.216Z,8.88
2023-03-06T21:08:37.721Z,10.38
2023-03-06T21:11:04.330Z,9.48
2023-03-06T21:13:30.824Z,15.13
2023-03-06T21:15:57.365Z,13.40
2023-03-06T21:18:24.453Z,12.63
2023-03-06T21:20:51.053Z,12.30
2023-03-06T21:23:17.562Z,10.13
2023-03-06T21:25:48.851Z,8.07
2023-03-06T21:28:16.017Z,9.57
2023-03-06T21:30:43.236Z,12.68
2023-03-06T21:33:12.705Z,11.45
2023-03-06T21:35:41.174Z,10.32
2023-03-06T21:38:08.678Z,9.75
2023-03-06T21:40:35.370Z,8.85
2023-03-06T21:43:01.911Z,10.30
2023-03-06T21:45:30.355Z,8.30
2023-03-06T21:47:57.944Z,10.23
2023-03-06T21:50:25.033Z,9.48
2023-03-06T21:52:52.184Z,8.23
2023-03-06T21:55:19.397Z,8.13
2023-03-06T21:57:53.031Z,12.88
2023-03-06T22:00:20.639Z,11.65
2023-03-06T22:02:47.220Z,16.55
2023-03-06T22:05:13.860Z,10.45
2023-03-06T22:07:40.615Z,11.40
2023-03-06T22:10:09.372Z,9.05
2023-03-06T22:12:36.525Z,9.82
2023-03-06T22:15:03.146Z,11.73
2023-03-06T22:17:30.998Z,9.75
2023-03-06T22:19:57.781Z,14.00
2023-03-06T22:22:24.907Z,11.30
2023-03-06T22:24:51.451Z,12.70
2023-03-06T22:27:18.050Z,11.38
2023-03-06T22:29:45.639Z,14.07
2023-03-06T22:32:12.350Z,10.00
2023-03-06T22:34:39.001Z,14.95
2023-03-06T22:37:05.549Z,12.50
2023-03-06T22:39:32.195Z,13.38
2023-03-06T22:41:58.756Z,14.60
2023-03-06T22:44:25.242Z,16.02
2023-03-06T22:46:51.872Z,14.40
2023-03-06T22:49:19.072Z,13.10
2023-03-06T22:51:45.577Z,13.32
2023-03-06T22:54:12.129Z,12.10
2023-03-06T22:56:38.716Z,9.88
2023-03-06T22:59:05.340Z,17.65
2023-03-06T23:01:33.933Z,12.85
2023-03-06T23:04:03.541Z,12.48
2023-03-06T23:06:43.180Z,10.80
2023-03-06T23:09:20.530Z,10.27
2023-03-06T23:11:47.802Z,16.65
2023-03-06T23:14:15.655Z,9.77
2023-03-06T23:16:42.209Z,14.57
2023-03-06T23:19:08.908Z,15.70
2023-03-06T23:21:35.645Z,15.32
2023-03-06T23:24:02.161Z,12.45
2023-03-06T23:26:31.221Z,16.13
2023-03-06T23:28:58.019Z,19.02
2023-03-06T23:31:29.702Z,13.25
2023-03-06T23:34:02.010Z,13.70
2023-03-06T23:36:29.668Z,16.40
2023-03-06T23:38:56.701Z,10.48
2023-03-06T23:41:23.733Z,10.68
2023-03-06T23:43:52.412Z,11.73
2023-03-06T23:46:20.718Z,15.13
2023-03-06T23:48:47.283Z,12.68
2023-03-06T23:51:16.628Z,14.48
2023-03-06T23:53:44.557Z,14.43
2023-03-06T23:56:11.359Z,14.18
2023-03-06T23:58:38.737Z,10.80
